Hatfield, Pennsylvania
Current Conditions -  °F | °C
As of 9:55 AM on Sunday 21 Dec 2014 (Local Time) from KLOM Reporting Station
Scattered Clouds Scattered Clouds  
Wind Chill: 32°   Ceiling: Unl
Heat Index: 36°   Visibility: 10mi
Dew Point: 23°   Wind: 5mph
Humidity: 60%   Direction: 340°NNW
Pressure: 30.33"   Gusts: NA
Location:  40.28°N, 75.3°W
Report Text: KLOM 211455Z AUTO 34004KT 10SM SCT032 02/M05 A3033 RMK AO1
Loading
Personal Weather Stations






























Interactive Weather Map New forecast layout! Learn more

10-Day Weather Forecast

Advertisements
Track Severe Weather on mobile